createdAt,value
2023-02-17T00:02:10.425Z,5.52
2023-02-17T00:05:12.195Z,5.58
2023-02-17T00:08:15.266Z,5.62
2023-02-17T00:11:17.256Z,5.66
2023-02-17T00:14:18.985Z,5.68
2023-02-17T00:17:20.983Z,5.74
2023-02-17T00:20:22.609Z,5.75
2023-02-17T00:23:25.785Z,5.78
2023-02-17T00:26:27.641Z,5.83
2023-02-17T00:29:29.210Z,5.88
2023-02-17T00:32:30.931Z,5.92
2023-02-17T00:35:32.715Z,5.95
2023-02-17T00:38:35.728Z,5.96
2023-02-17T00:41:37.526Z,5.98
2023-02-17T00:44:39.481Z,6.00
2023-02-17T00:47:41.482Z,6.13
2023-02-17T00:50:47.842Z,6.21
2023-02-17T00:53:51.800Z,6.22
2023-02-17T00:56:53.488Z,6.34
2023-02-17T00:59:55.232Z,6.37
2023-02-17T01:02:56.914Z,6.46
2023-02-17T01:05:59.084Z,6.53
2023-02-17T01:09:02.414Z,6.63
2023-02-17T01:12:07.139Z,6.72
2023-02-17T01:15:09.358Z,6.75
2023-02-17T01:18:11.357Z,6.81
2023-02-17T01:21:16.830Z,6.87
2023-02-17T01:24:20.134Z,6.90
2023-02-17T01:27:21.722Z,6.95
2023-02-17T01:30:23.465Z,7.01
2023-02-17T01:33:27.979Z,7.06
2023-02-17T01:36:29.802Z,7.04
2023-02-17T01:39:33.044Z,7.08
2023-02-17T01:42:34.908Z,7.09
2023-02-17T01:45:40.746Z,7.12
2023-02-17T01:48:44.863Z,7.12
2023-02-17T01:51:49.679Z,7.15
2023-02-17T01:54:54.403Z,7.21
2023-02-17T01:57:57.846Z,7.21
2023-02-17T02:01:01.343Z,7.22
2023-02-17T02:04:04.643Z,7.24
2023-02-17T02:07:10.205Z,7.26
2023-02-17T02:10:13.624Z,7.28
2023-02-17T02:13:15.404Z,7.28
2023-02-17T02:16:20.370Z,7.29
2023-02-17T02:19:44.800Z,7.35
2023-02-17T02:23:06.406Z,7.37
2023-02-17T02:26:23.369Z,7.38
2023-02-17T02:29:46.899Z,7.43
2023-02-17T02:32:59.410Z,7.43
2023-02-17T02:36:05.523Z,7.41
2023-02-17T02:39:14.436Z,7.42
2023-02-17T02:42:17.171Z,7.43
2023-02-17T02:45:19.371Z,7.43
2023-02-17T02:48:22.339Z,7.44
2023-02-17T02:51:31.255Z,7.45
2023-02-17T02:54:42.427Z,7.47
2023-02-17T02:57:50.986Z,7.47
2023-02-17T03:00:59.238Z,7.50
2023-02-17T03:04:06.922Z,7.50
2023-02-17T03:07:13.053Z,7.52
2023-02-17T03:10:16.241Z,7.52
2023-02-17T03:13:18.650Z,7.53
2023-02-17T03:16:20.756Z,7.53
2023-02-17T03:19:24.500Z,7.56
2023-02-17T03:22:30.119Z,7.56
2023-02-17T03:25:31.980Z,7.59
2023-02-17T03:28:34.202Z,7.59
2023-02-17T03:31:36.687Z,7.62
2023-02-17T03:34:39.817Z,7.65
2023-02-17T03:37:41.615Z,7.63
2023-02-17T03:40:43.218Z,7.59
2023-02-17T03:43:45.066Z,7.57
2023-02-17T03:46:47.083Z,7.58
2023-02-17T03:49:50.794Z,7.60
2023-02-17T03:52:52.783Z,7.61
2023-02-17T03:55:54.552Z,7.64
2023-02-17T03:58:56.345Z,7.66
2023-02-17T04:02:04.593Z,7.69
2023-02-17T04:05:09.613Z,7.70
2023-02-17T04:08:11.604Z,7.67
2023-02-17T04:11:13.389Z,7.69
2023-02-17T04:14:15.180Z,7.73
2023-02-17T04:17:16.683Z,7.74
2023-02-17T04:20:19.925Z,7.72
2023-02-17T04:23:21.785Z,7.75
2023-02-17T04:26:23.448Z,7.76
2023-02-17T04:29:25.207Z,7.78
2023-02-17T04:32:26.831Z,7.78
2023-02-17T04:35:29.985Z,7.77
2023-02-17T04:38:32.131Z,7.80
2023-02-17T04:41:33.847Z,7.80
2023-02-17T04:44:35.727Z,7.82
2023-02-17T04:47:37.562Z,7.84
2023-02-17T04:50:40.607Z,7.85
2023-02-17T04:53:42.316Z,7.87
2023-02-17T04:56:44.256Z,7.87
2023-02-17T04:59:46.100Z,7.90
2023-02-17T05:02:47.875Z,7.94
2023-02-17T05:05:50.929Z,7.94
2023-02-17T05:08:54.113Z,7.90
2023-02-17T05:11:55.778Z,7.91
2023-02-17T05:14:57.407Z,7.93
2023-02-17T05:17:58.970Z,7.93
2023-02-17T05:21:02.159Z,7.95
2023-02-17T05:24:03.929Z,7.97
2023-02-17T05:27:05.758Z,8.00
2023-02-17T05:30:08.087Z,8.04
2023-02-17T05:33:09.922Z,8.05
2023-02-17T05:36:13.128Z,8.03
2023-02-17T05:39:15.053Z,8.03
2023-02-17T05:42:16.648Z,8.08
2023-02-17T05:45:18.718Z,8.07
2023-02-17T05:48:20.480Z,8.06
2023-02-17T05:51:23.392Z,8.08
2023-02-17T05:54:25.089Z,8.10
2023-02-17T05:57:27.565Z,8.12
2023-02-17T06:00:30.381Z,8.12
2023-02-17T06:03:31.920Z,8.13
2023-02-17T06:06:35.048Z,8.13
2023-02-17T06:09:37.720Z,8.12
2023-02-17T06:12:39.344Z,8.11
2023-02-17T06:15:41.105Z,8.12
2023-02-17T06:18:42.679Z,8.21
2023-02-17T06:21:45.891Z,8.21
2023-02-17T06:24:47.471Z,8.17
2023-02-17T06:27:49.202Z,8.19
2023-02-17T06:30:51.662Z,8.21
2023-02-17T06:33:53.368Z,8.21
2023-02-17T06:36:56.721Z,8.26
2023-02-17T06:39:58.506Z,8.23
2023-02-17T06:43:00.174Z,8.26
2023-02-17T06:46:01.982Z,8.28
2023-02-17T06:49:03.977Z,8.31
2023-02-17T06:52:07.008Z,8.32
2023-02-17T06:55:09.142Z,8.30
2023-02-17T06:58:10.819Z,8.32
2023-02-17T07:01:15.852Z,8.32
2023-02-17T07:04:17.341Z,8.35
2023-02-17T07:07:20.293Z,8.37
2023-02-17T07:10:22.042Z,8.35
2023-02-17T07:13:23.599Z,8.41
2023-02-17T07:16:25.441Z,8.40
2023-02-17T07:19:29.709Z,8.37
2023-02-17T07:22:33.030Z,8.40
2023-02-17T07:25:34.817Z,8.42
2023-02-17T07:28:36.967Z,8.46
2023-02-17T07:31:39.356Z,8.47
2023-02-17T07:34:41.650Z,8.54
2023-02-17T07:37:44.568Z,8.57
2023-02-17T07:40:46.137Z,8.50
2023-02-17T07:43:48.428Z,8.49
2023-02-17T07:46:51.424Z,8.49
2023-02-17T07:49:53.183Z,8.49
2023-02-17T07:52:56.687Z,8.54
2023-02-17T07:55:58.333Z,8.55
2023-02-17T07:58:59.980Z,8.51
2023-02-17T08:02:01.665Z,8.52
2023-02-17T08:05:04.319Z,8.49
2023-02-17T08:08:26.119Z,8.51
2023-02-17T08:12:06.419Z,8.50
2023-02-17T08:15:09.946Z,8.53
2023-02-17T08:18:11.876Z,8.52
2023-02-17T08:21:13.611Z,8.52
2023-02-17T08:24:16.671Z,8.53
2023-02-17T08:27:18.944Z,8.49
2023-02-17T08:30:21.124Z,8.47
2023-02-17T08:33:23.060Z,8.46
2023-02-17T08:36:24.756Z,8.42
2023-02-17T08:39:27.911Z,8.46
2023-02-17T08:42:31.772Z,8.49
2023-02-17T08:45:33.594Z,8.48
2023-02-17T08:48:36.695Z,8.46
2023-02-17T08:51:38.340Z,8.48
2023-02-17T08:54:41.480Z,8.46
2023-02-17T08:57:43.038Z,8.45
2023-02-17T09:00:44.650Z,8.45
2023-02-17T09:03:46.349Z,8.50
2023-02-17T09:06:49.431Z,8.49
2023-02-17T09:09:52.404Z,8.48
2023-02-17T09:12:54.524Z,8.51
2023-02-17T09:15:56.410Z,8.54
2023-02-17T09:18:58.303Z,8.56
2023-02-17T09:22:00.215Z,8.59
2023-02-17T09:25:03.575Z,8.62
2023-02-17T09:28:05.470Z,8.66
2023-02-17T09:31:10.775Z,8.71
2023-02-17T09:34:12.634Z,8.75
2023-02-17T09:37:14.307Z,8.78
2023-02-17T09:40:20.062Z,8.80
2023-02-17T09:43:25.118Z,8.84
2023-02-17T09:46:29.689Z,8.86
2023-02-17T09:49:35.180Z,8.89
2023-02-17T09:52:40.352Z,8.94
2023-02-17T09:55:46.694Z,8.94
2023-02-17T09:58:51.745Z,8.97
2023-02-17T10:01:55.142Z,9.01
2023-02-17T10:04:59.656Z,9.04
2023-02-17T10:08:05.469Z,9.05
2023-02-17T10:11:14.608Z,9.07
2023-02-17T10:14:19.257Z,9.05
2023-02-17T10:17:24.783Z,9.08
2023-02-17T10:20:31.355Z,9.09
2023-02-17T10:23:33.510Z,9.07
2023-02-17T10:26:47.348Z,9.11
2023-02-17T10:29:53.728Z,9.13
2023-02-17T10:33:00.578Z,9.13
2023-02-17T10:36:10.585Z,9.16
2023-02-17T10:39:14.390Z,9.19
2023-02-17T10:42:20.689Z,9.25
2023-02-17T10:45:26.233Z,9.29
2023-02-17T10:48:32.203Z,9.31
2023-02-17T10:51:33.814Z,9.37
2023-02-17T10:54:37.338Z,9.43
2023-02-17T10:57:41.120Z,9.47
2023-02-17T11:00:42.986Z,9.48
2023-02-17T11:03:44.789Z,9.50
2023-02-17T11:06:49.363Z,9.53
2023-02-17T11:09:51.904Z,9.58
2023-02-17T11:12:58.784Z,9.62
2023-02-17T11:16:00.621Z,9.68
2023-02-17T11:19:02.391Z,9.76
2023-02-17T11:22:05.376Z,9.85
2023-02-17T11:25:08.510Z,9.88
2023-02-17T11:28:13.644Z,9.91
2023-02-17T11:31:22.521Z,9.98
2023-02-17T11:34:26.207Z,10.02
2023-02-17T11:37:32.310Z,10.07
2023-02-17T11:40:33.946Z,10.09
2023-02-17T11:43:37.727Z,10.13
2023-02-17T11:46:44.575Z,10.21
2023-02-17T11:49:55.093Z,10.31
2023-02-17T11:53:04.358Z,10.33
2023-02-17T11:56:13.453Z,10.34
2023-02-17T11:59:22.974Z,10.38
2023-02-17T12:02:38.025Z,10.40
2023-02-17T12:05:49.776Z,10.42
2023-02-17T12:08:58.485Z,10.46
2023-02-17T12:12:05.824Z,10.48
2023-02-17T12:15:23.214Z,10.52
2023-02-17T12:18:31.713Z,10.58
2023-02-17T12:21:44.000Z,10.60
2023-02-17T12:24:58.118Z,10.61
2023-02-17T12:28:07.530Z,10.61
2023-02-17T12:31:17.845Z,10.63
2023-02-17T12:34:21.886Z,10.67
2023-02-17T12:37:29.441Z,10.69
2023-02-17T12:40:33.878Z,10.69
2023-02-17T12:43:39.389Z,10.72
2023-02-17T12:46:43.801Z,10.72
2023-02-17T12:49:48.339Z,10.68
2023-02-17T12:52:52.246Z,10.65
2023-02-17T12:55:56.654Z,10.64
2023-02-17T12:59:01.648Z,10.64
2023-02-17T13:02:05.847Z,10.62
2023-02-17T13:05:16.462Z,10.62
2023-02-17T13:08:21.674Z,10.63
2023-02-17T13:11:27.362Z,10.62
2023-02-17T13:14:38.009Z,10.60
2023-02-17T13:17:52.178Z,10.60
2023-02-17T13:20:58.530Z,10.56
2023-02-17T13:24:01.181Z,10.57
2023-02-17T13:27:10.212Z,10.62
2023-02-17T13:30:27.490Z,10.63
2023-02-17T13:33:31.142Z,10.59
2023-02-17T13:36:38.599Z,10.62
2023-02-17T13:39:40.466Z,10.57
2023-02-17T13:42:44.372Z,10.56
2023-02-17T13:45:48.504Z,10.60
2023-02-17T13:48:59.897Z,10.56
2023-02-17T13:52:09.073Z,10.53
2023-02-17T13:55:18.084Z,10.52
2023-02-17T13:58:23.975Z,10.43
2023-02-17T14:01:27.316Z,10.30
2023-02-17T14:04:31.747Z,10.18
2023-02-17T14:07:35.398Z,10.09
2023-02-17T14:10:36.972Z,10.04
2023-02-17T14:13:39.874Z,9.97
2023-02-17T14:16:44.132Z,9.91
2023-02-17T14:19:48.119Z,9.90
2023-02-17T14:23:03.966Z,9.86
2023-02-17T14:26:09.582Z,9.79
2023-02-17T14:29:15.549Z,9.75
2023-02-17T14:32:27.063Z,9.74
2023-02-17T14:35:30.011Z,9.73
2023-02-17T14:38:35.063Z,9.71
2023-02-17T14:41:36.769Z,9.71
2023-02-17T14:44:39.207Z,9.71
2023-02-17T14:47:41.842Z,9.70
2023-02-17T14:50:45.361Z,9.69
2023-02-17T14:53:47.515Z,9.69
2023-02-17T14:56:53.730Z,9.66
2023-02-17T14:59:57.713Z,9.70
2023-02-17T15:02:59.423Z,9.68
2023-02-17T15:06:02.925Z,9.63
2023-02-17T15:09:05.031Z,9.57
2023-02-17T15:12:13.056Z,9.49
2023-02-17T15:15:15.459Z,9.44
2023-02-17T15:18:18.164Z,9.42
2023-02-17T15:21:25.167Z,9.39
2023-02-17T15:24:31.847Z,9.34
2023-02-17T15:27:35.552Z,9.31
2023-02-17T15:30:37.178Z,9.30
2023-02-17T15:33:39.303Z,9.30
2023-02-17T15:36:42.309Z,9.29
2023-02-17T15:39:44.300Z,9.31
2023-02-17T15:42:47.204Z,9.33
2023-02-17T15:45:49.081Z,9.34
2023-02-17T15:48:50.841Z,9.36
2023-02-17T15:51:54.108Z,9.39
2023-02-17T15:54:56.170Z,9.42
2023-02-17T15:57:59.087Z,9.45
2023-02-17T16:01:01.700Z,9.44
2023-02-17T16:04:05.120Z,9.39
2023-02-17T16:07:08.122Z,9.32
2023-02-17T16:10:10.969Z,9.32
2023-02-17T16:13:14.725Z,9.32
2023-02-17T16:16:17.875Z,9.30
2023-02-17T16:19:19.415Z,9.29
2023-02-17T16:22:22.401Z,9.26
2023-02-17T16:25:24.695Z,9.29
2023-02-17T16:28:26.866Z,9.29
2023-02-17T16:31:28.689Z,9.33
2023-02-17T16:34:34.687Z,9.35
2023-02-17T16:37:38.042Z,9.32
2023-02-17T16:40:47.128Z,9.34
2023-02-17T16:43:48.777Z,9.31
2023-02-17T16:46:51.453Z,9.29
2023-02-17T16:49:53.236Z,9.29
2023-02-17T16:52:57.723Z,9.25
2023-02-17T16:55:59.264Z,9.27
2023-02-17T16:59:00.886Z,9.28
2023-02-17T17:02:03.066Z,9.30
2023-02-17T17:05:04.833Z,9.26
2023-02-17T17:08:10.990Z,9.28
2023-02-17T17:11:13.694Z,9.30
2023-02-17T17:14:21.516Z,9.32
2023-02-17T17:17:24.467Z,9.32
2023-02-17T17:20:31.181Z,9.34
2023-02-17T17:23:38.014Z,9.32
2023-02-17T17:26:40.625Z,9.37
2023-02-17T17:29:42.573Z,9.34
2023-02-17T17:32:44.239Z,9.36
2023-02-17T17:35:45.757Z,9.38
2023-02-17T17:38:52.247Z,9.37
2023-02-17T17:41:54.089Z,9.39
2023-02-17T17:44:55.968Z,9.42
2023-02-17T17:47:58.173Z,9.41
2023-02-17T17:51:00.524Z,9.48
2023-02-17T17:54:06.104Z,9.47
2023-02-17T17:57:10.015Z,9.44
2023-02-17T18:00:14.962Z,9.44
2023-02-17T18:03:21.970Z,9.51
2023-02-17T18:06:35.605Z,9.55
2023-02-17T18:09:39.506Z,9.55
2023-02-17T18:12:42.969Z,9.53
2023-02-17T18:15:44.680Z,9.53
2023-02-17T18:18:46.506Z,9.57
2023-02-17T18:21:48.367Z,9.56
2023-02-17T18:24:51.729Z,9.48
2023-02-17T18:27:53.310Z,9.45
2023-02-17T18:30:57.124Z,9.47
2023-02-17T18:33:58.717Z,9.41
2023-02-17T18:37:00.748Z,9.33
2023-02-17T18:40:04.095Z,9.27
2023-02-17T18:43:05.722Z,9.16
2023-02-17T18:46:09.920Z,9.09
2023-02-17T18:49:11.834Z,9.03
2023-02-17T18:52:13.768Z,8.68
2023-02-17T18:55:24.119Z,8.31
2023-02-17T18:58:25.996Z,8.15
2023-02-17T19:01:28.924Z,8.08
2023-02-17T19:04:30.874Z,8.02
2023-02-17T19:07:35.857Z,8.00
2023-02-17T19:10:39.067Z,7.93
2023-02-17T19:13:41.770Z,7.85
2023-02-17T19:16:43.707Z,7.82
2023-02-17T19:19:45.658Z,7.77
2023-02-17T19:22:47.347Z,7.73
2023-02-17T19:25:54.261Z,7.70
2023-02-17T19:28:56.729Z,7.68
2023-02-17T19:32:04.036Z,7.59
2023-02-17T19:35:06.450Z,7.54
2023-02-17T19:38:08.517Z,7.50
2023-02-17T19:41:12.277Z,7.40
2023-02-17T19:44:14.166Z,7.37
2023-02-17T19:47:18.260Z,7.27
2023-02-17T19:50:20.735Z,7.25
2023-02-17T19:53:22.770Z,7.21
2023-02-17T19:56:28.707Z,7.15
2023-02-17T19:59:31.880Z,7.16
2023-02-17T20:02:34.449Z,7.17
2023-02-17T20:05:38.268Z,7.10
2023-02-17T20:08:40.379Z,7.08
2023-02-17T20:11:44.308Z,7.06
2023-02-17T20:14:46.203Z,7.03
2023-02-17T20:17:48.169Z,7.03
2023-02-17T20:20:51.887Z,7.05
2023-02-17T20:23:55.202Z,6.99
2023-02-17T20:26:59.118Z,6.98
2023-02-17T20:30:02.154Z,6.98
2023-02-17T20:33:04.310Z,6.95
2023-02-17T20:36:07.231Z,6.92
2023-02-17T20:39:09.209Z,6.89
2023-02-17T20:42:12.608Z,6.92
2023-02-17T20:45:14.510Z,6.89
2023-02-17T20:48:16.506Z,6.88
2023-02-17T20:51:24.914Z,6.90
2023-02-17T20:54:27.451Z,6.89
2023-02-17T20:57:31.275Z,6.88
2023-02-17T21:03:40.665Z,6.82
2023-02-17T21:06:50.320Z,6.84
2023-02-17T21:09:56.294Z,6.78
2023-02-17T21:12:59.883Z,6.75
2023-02-17T21:16:01.733Z,6.75
2023-02-17T21:19:04.253Z,6.73
2023-02-17T21:22:09.107Z,6.73
2023-02-17T21:25:22.508Z,6.72
2023-02-17T21:28:35.411Z,6.66
2023-02-17T21:31:38.491Z,6.65
2023-02-17T21:34:55.282Z,6.64
2023-02-17T21:38:08.005Z,6.66
2023-02-17T21:41:16.193Z,6.68
2023-02-17T21:44:45.749Z,6.65
2023-02-17T21:47:55.912Z,6.63
2023-02-17T21:51:06.730Z,6.58
2023-02-17T21:54:11.073Z,6.58
2023-02-17T21:57:13.202Z,6.60
2023-02-17T22:00:17.244Z,6.58
2023-02-17T22:03:23.150Z,6.53
2023-02-17T22:06:26.506Z,6.54
2023-02-17T22:09:28.352Z,6.49
2023-02-17T22:12:33.803Z,6.44
2023-02-17T22:15:37.177Z,6.40
2023-02-17T22:18:39.484Z,6.38
2023-02-17T22:21:42.416Z,6.42
2023-02-17T22:24:44.344Z,6.42
2023-02-17T22:27:48.111Z,6.44
2023-02-17T22:30:53.701Z,6.42
2023-02-17T22:33:58.328Z,6.40
2023-02-17T22:37:01.014Z,6.38
2023-02-17T22:40:04.294Z,6.36
2023-02-17T22:43:06.086Z,6.35
2023-02-17T22:46:12.548Z,6.29
2023-02-17T22:49:14.630Z,6.32
2023-02-17T22:52:16.344Z,6.31
2023-02-17T22:55:18.184Z,6.29
2023-02-17T22:58:20.173Z,6.32
2023-02-17T23:01:24.355Z,6.33
2023-02-17T23:04:26.309Z,6.31
2023-02-17T23:07:28.375Z,6.30
2023-02-17T23:10:30.276Z,6.28
2023-02-17T23:13:32.003Z,6.30
2023-02-17T23:16:35.353Z,6.32
2023-02-17T23:19:37.654Z,6.28
2023-02-17T23:22:39.209Z,6.27
2023-02-17T23:25:41.543Z,6.26
2023-02-17T23:28:46.025Z,6.24
2023-02-17T23:31:49.295Z,6.23
2023-02-17T23:34:50.933Z,6.21
2023-02-17T23:37:56.745Z,6.18
2023-02-17T23:40:58.940Z,6.14
2023-02-17T23:44:00.607Z,6.17
2023-02-17T23:47:06.877Z,6.16
2023-02-17T23:50:08.829Z,6.16
2023-02-17T23:53:10.554Z,6.18
2023-02-17T23:56:14.087Z,6.19
2023-02-17T23:59:15.678Z,6.23
